Time;durP1;ratioP1;P1;durP2;ratioP2;P2;SDS_P1;SDS_P2;PMS_P1;PMS_P2;Temp;Humidity;BMP_temperature;BMP_pressure;BME280_temperature;BME280_humidity;BME280_pressure;Samples;Min_cycle;Max_cycle;Signal;HPM_P1;HPM_P2
2022/03/28 00:01:31;;;;;;;;;54.33;38.00;;;;;14.42;40.90;102044.94;5026302;28;45371;-69
2022/03/28 00:03:56;;;;;;;;;44.67;39.67;;;;;14.35;40.70;102031.09;5033787;28;45454;-70
2022/03/28 00:06:23;;;;;;;;;41.67;36.67;;;;;14.32;40.69;102028.75;5034019;28;46124;-70
2022/03/28 00:08:49;;;;;;;;;46.67;35.67;;;;;14.29;40.59;102034.66;5034251;28;45605;-71
2022/03/28 00:11:16;;;;;;;;;42.67;37.67;;;;;14.24;40.80;102032.50;5026263;28;45489;-70
2022/03/28 00:13:41;;;;;;;;;44.33;36.00;;;;;14.21;40.41;102030.16;5014746;28;45564;-69
2022/03/28 00:16:07;;;;;;;;;46.50;37.50;;;;;14.15;40.69;102030.97;5033101;28;46082;-70
2022/03/28 00:18:32;;;;;;;;;45.50;36.50;;;;;14.12;40.76;102028.63;5033486;28;45777;-69
2022/03/28 00:20:58;;;;;;;;;40.33;35.67;;;;;14.09;41.28;102029.03;5033875;28;45449;-69
2022/03/28 00:23:24;;;;;;;;;42.67;34.33;;;;;14.04;40.93;102024.09;5016097;28;45653;-71
2022/03/28 00:25:49;;;;;;;;;46.25;36.75;;;;;14.02;41.07;102022.59;5033701;28;46275;-70
2022/03/28 00:28:15;;;;;;;;;33.67;30.67;;;;;13.99;41.08;102023.00;5033351;28;45399;-69
2022/03/28 00:30:41;;;;;;;;;41.67;35.33;;;;;13.93;41.18;102017.22;5015437;28;45461;-69
2022/03/28 00:33:07;;;;;;;;;44.67;37.33;;;;;13.91;41.41;102012.97;5032681;28;45570;-69
2022/03/28 00:35:35;;;;;;;;;48.33;37.00;;;;;13.86;41.37;102013.56;5032035;28;45589;-69
2022/03/28 00:38:01;;;;;;;;;40.33;34.67;;;;;13.84;41.93;102010.16;5032372;28;45343;-68
2022/03/28 00:40:27;;;;;;;;;49.67;37.67;;;;;13.84;42.63;102012.06;5033110;28;45754;-69
2022/03/28 00:42:54;;;;;;;;;41.67;34.33;;;;;13.78;41.92;102003.50;5018615;28;46914;-68
2022/03/28 00:45:20;;;;;;;;;39.00;33.67;;;;;13.77;42.63;102004.59;5014922;28;46594;-69
2022/03/28 00:47:46;;;;;;;;;43.33;33.00;;;;;13.73;42.17;102002.44;5033118;28;45432;-69
2022/03/28 00:50:11;;;;;;;;;41.00;34.00;;;;;13.69;42.36;102004.72;5026909;28;45648;-69
2022/03/28 00:52:38;;;;;;;;;43.33;33.67;;;;;13.68;42.40;102002.16;5033696;28;45414;-74
2022/03/28 00:55:06;;;;;;;;;41.75;35.25;;;;;13.67;43.33;102004.06;5023723;28;46712;-76
2022/03/28 00:57:32;;;;;;;;;46.75;35.00;;;;;13.64;43.22;102004.47;5033472;28;46007;-68
2022/03/28 00:59:58;;;;;;;;;44.75;37.00;;;;;13.59;43.33;101990.41;5033757;28;45424;-75
2022/03/28 01:02:25;;;;;;;;;42.00;33.67;;;;;13.59;43.11;102002.31;5034161;28;45513;-75
2022/03/28 01:04:51;;;;;;;;;46.25;37.50;;;;;13.51;43.00;101996.06;5034455;28;46422;-76
2022/03/28 01:07:19;;;;;;;;;49.25;36.75;;;;;13.53;43.99;102003.09;5033620;28;45596;-77
2022/03/28 01:09:45;;;;;;;;;44.00;35.75;;;;;13.50;44.04;101992.47;5017063;28;45827;-77
2022/03/28 01:12:11;;;;;;;;;46.50;36.00;;;;;13.46;44.04;101987.53;5032821;28;45413;-75
2022/03/28 01:14:37;;;;;;;;;46.33;35.67;;;;;13.47;44.56;101989.25;5033313;28;45457;-75
2022/03/28 01:19:54;;;;;;;;;43.75;34.00;;;;;13.39;44.80;101985.56;5033400;28;45417;-77
2022/03/28 01:22:20;;;;;;;;;45.50;35.75;;;;;13.36;44.70;101979.63;5032305;28;45582;-76
2022/03/28 01:24:46;;;;;;;;;48.25;39.25;;;;;13.36;45.07;101985.13;5032628;28;46029;-75
2022/03/28 01:27:13;;;;;;;;;45.50;34.75;;;;;13.34;44.95;101981.72;5032205;28;45809;-74
2022/03/28 01:29:42;;;;;;;;;45.33;36.67;;;;;13.30;44.68;101980.38;5033179;28;45553;-75
2022/03/28 01:32:08;;;;;;;;;41.33;33.67;;;;;13.28;45.37;101982.44;5032864;28;45391;-76
2022/03/28 01:34:34;;;;;;;;;49.00;38.00;;;;;13.25;45.55;101981.81;5033775;28;45491;-76
2022/03/28 01:36:59;;;;;;;;;43.75;31.50;;;;;13.22;45.83;101973.94;5033017;28;45815;-76
2022/03/28 01:39:26;;;;;;;;;45.00;37.00;;;;;13.20;45.69;101976.03;5012381;28;45415;-69
2022/03/28 01:41:55;;;;;;;;;44.33;36.33;;;;;13.15;46.11;101969.41;5032427;28;45886;-71
2022/03/28 01:44:20;;;;;;;;;40.33;34.67;;;;;13.15;46.32;101970.25;5031446;28;45425;-70
2022/03/28 01:46:47;;;;;;;;;47.75;37.75;;;;;13.13;45.73;101966.84;5032176;28;45714;-69
2022/03/28 01:49:17;;;;;;;;;42.50;32.50;;;;;13.09;45.71;101961.94;5032172;28;45798;-70
2022/03/28 01:51:42;;;;;;;;;39.50;32.50;;;;;13.08;46.30;101966.56;5031671;28;45421;-71
2022/03/28 01:54:09;;;;;;;;;49.25;36.75;;;;;13.05;46.31;101956.81;5032599;28;46156;-73
2022/03/28 01:56:35;;;;;;;;;41.75;34.25;;;;;13.05;46.68;101961.47;5022874;28;45767;-75
2022/03/28 01:59:02;;;;;;;;;47.25;36.25;;;;;13.05;46.64;101958.69;5014819;28;45930;-74
2022/03/28 02:01:27;;;;;;;;;43.75;35.00;;;;;12.99;46.94;101952.06;5032676;28;46092;-69
2022/03/28 02:03:53;;;;;;;;;43.00;32.50;;;;;13.00;46.99;101958.44;5013835;28;46607;-69
2022/03/28 02:06:18;;;;;;;;;45.00;35.00;;;;;12.98;47.39;101963.28;5013847;28;45586;-69
2022/03/28 02:08:44;;;;;;;;;42.25;34.50;;;;;12.98;47.13;101960.53;5031122;28;46545;-76
2022/03/28 02:11:10;;;;;;;;;44.25;34.25;;;;;12.92;47.38;101948.41;5030846;28;45347;-75
2022/03/28 02:13:35;;;;;;;;;43.25;33.75;;;;;12.94;47.48;101953.72;5031849;28;45441;-76
2022/03/28 02:16:01;;;;;;;;;45.75;35.00;;;;;12.87;47.70;101939.88;5022277;28;45300;-75
2022/03/28 02:18:27;;;;;;;;;40.50;33.50;;;;;12.89;47.44;101946.06;5032252;28;45465;-75
2022/03/28 02:20:53;;;;;;;;;41.25;35.25;;;;;12.88;47.25;101955.34;5023583;28;45869;-73
2022/03/28 02:23:20;;;;;;;;;39.50;30.75;;;;;12.85;46.89;101956.59;5030517;28;45848;-75
2022/03/28 02:25:45;;;;;;;;;35.00;32.67;;;;;12.85;47.01;101951.06;5030449;28;45595;-70
2022/03/28 02:28:11;;;;;;;;;38.50;31.25;;;;;12.82;47.44;101945.97;5031632;28;45682;-69
2022/03/28 02:30:37;;;;;;;;;41.00;33.67;;;;;12.82;47.93;101951.47;5031261;28;45363;-68
2022/03/28 02:33:03;;;;;;;;;44.75;36.50;;;;;12.80;47.82;101942.56;5031669;28;45325;-69
2022/03/28 02:35:29;;;;;;;;;40.25;33.00;;;;;12.80;47.58;101937.06;5031714;28;45638;-70
2022/03/28 02:37:57;;;;;;;;;41.00;34.67;;;;;12.79;47.64;101942.75;5027486;28;45419;-70
2022/03/28 02:40:23;;;;;;;;;42.00;34.25;;;;;12.78;47.92;101944.63;5031858;28;45498;-70
2022/03/28 02:42:48;;;;;;;;;44.33;35.33;;;;;12.77;47.72;101940.19;5012359;28;46304;-69
2022/03/28 02:45:14;;;;;;;;;46.67;34.33;;;;;12.77;48.15;101936.56;5013309;28;45467;-69
2022/03/28 02:47:39;;;;;;;;;50.00;37.75;;;;;12.73;48.12;101924.28;5031581;28;45440;-68
2022/03/28 02:50:06;;;;;;;;;45.67;34.00;;;;;12.74;48.06;101929.56;5031867;28;45483;-70
2022/03/28 02:52:31;;;;;;;;;45.75;35.25;;;;;12.73;48.04;101925.13;5013431;28;48365;-71
2022/03/28 02:54:57;;;;;;;;;35.50;32.25;;;;;12.75;48.17;101923.00;5031167;28;45312;-68
2022/03/28 02:57:22;;;;;;;;;47.50;35.50;;;;;12.73;48.10;101927.88;5031167;28;45417;-69
2022/03/28 02:59:47;;;;;;;;;41.75;34.00;;;;;12.71;48.10;101921.72;5039721;28;45318;-68
2022/03/28 03:02:13;;;;;;;;;40.25;32.25;;;;;12.73;48.04;101913.25;5018849;28;47039;-69
2022/03/28 03:04:39;;;;;;;;;42.50;34.50;;;;;12.71;48.11;101914.28;5015924;28;45478;-68
2022/03/28 03:07:05;;;;;;;;;45.75;36.00;;;;;12.71;48.02;101911.53;5032050;28;44721;-68
2022/03/28 03:09:30;;;;;;;;;38.25;34.00;;;;;12.72;48.11;101917.88;5031869;28;45601;-69
2022/03/28 03:11:56;;;;;;;;;37.25;32.50;;;;;12.71;48.01;101910.69;5031770;28;46577;-68
2022/03/28 03:14:22;;;;;;;;;49.00;33.50;;;;;12.69;47.84;101908.16;5037807;28;46016;-69
2022/03/28 03:16:48;;;;;;;;;41.75;32.00;;;;;12.68;48.05;101902.84;5031795;28;45432;-72
2022/03/28 03:19:13;;;;;;;;;37.50;32.50;;;;;12.63;47.88;101891.53;5013988;28;45818;-71
2022/03/28 03:21:39;;;;;;;;;46.00;34.50;;;;;12.61;48.48;101899.16;5031997;28;45719;-69
2022/03/28 03:24:05;;;;;;;;;43.50;32.50;;;;;12.60;48.20;101897.44;5031245;28;45867;-69
2022/03/28 03:26:31;;;;;;;;;41.50;34.25;;;;;12.58;48.59;101894.03;5031988;28;45369;-70
2022/03/28 03:28:58;;;;;;;;;36.00;32.50;;;;;12.54;48.59;101888.91;5030379;28;45379;-69
2022/03/28 03:31:24;;;;;;;;;39.75;34.50;;;;;12.55;48.56;101889.75;5037404;28;46548;-70
2022/03/28 03:33:50;;;;;;;;;37.25;33.25;;;;;12.50;48.87;101887.59;5032232;28;45657;-69
2022/03/28 03:36:15;;;;;;;;;46.25;33.75;;;;;12.49;49.43;101885.88;5013537;28;45501;-69
2022/03/28 03:38:40;;;;;;;;;41.25;35.25;;;;;12.50;49.31;101895.84;5012131;28;45889;-70
2022/03/28 03:41:06;;;;;;;;;40.50;32.25;;;;;12.46;49.42;101885.44;5039488;28;46532;-69
2022/03/28 03:43:31;;;;;;;;;43.25;35.25;;;;;12.46;50.48;101882.69;5012849;28;46037;-70
2022/03/28 03:45:56;;;;;;;;;41.00;33.25;;;;;12.46;50.71;101897.28;5034013;28;45761;-69
2022/03/28 03:48:22;;;;;;;;;48.00;37.00;;;;;12.44;51.05;101893.88;5034135;28;45935;-69
2022/03/28 03:50:47;;;;;;;;;50.50;38.50;;;;;12.42;51.00;101893.19;5015838;28;46628;-70
2022/03/28 03:53:14;;;;;;;;;44.50;35.50;;;;;12.41;51.04;101893.38;5030862;28;45405;-70
2022/03/28 03:55:40;;;;;;;;;48.75;36.00;;;;;12.34;51.41;101880.41;5033762;28;45701;-70
2022/03/28 03:58:05;;;;;;;;;47.50;37.25;;;;;12.33;51.29;101884.19;5033124;28;45715;-71
2022/03/28 04:00:31;;;;;;;;;44.50;35.75;;;;;12.35;51.39;101892.28;5015218;28;46166;-71
2022/03/28 04:02:57;;;;;;;;;48.00;36.00;;;;;12.30;51.25;101883.75;5032061;28;45451;-71
2022/03/28 04:05:22;;;;;;;;;44.50;34.25;;;;;12.31;51.90;101885.47;5031968;28;45422;-70
2022/03/28 04:07:48;;;;;;;;;43.50;36.00;;;;;12.27;52.03;101879.47;5025067;28;45370;-70
2022/03/28 04:10:13;;;;;;;;;47.50;38.00;;;;;12.27;51.99;101881.38;5014899;28;46704;-71
2022/03/28 04:12:39;;;;;;;;;47.75;38.00;;;;;12.25;51.94;101883.47;5011153;28;45664;-73
2022/03/28 04:15:05;;;;;;;;;42.75;34.00;;;;;12.25;52.40;101888.97;5025025;28;45827;-71
2022/03/28 04:17:39;;;;;;;;;42.50;33.25;;;;;12.20;51.90;101875.81;5009394;28;45525;-72
2022/03/28 04:20:05;;;;;;;;;49.50;38.00;;;;;12.20;52.67;101884.06;5032728;28;46541;-71
2022/03/28 04:22:30;;;;;;;;;51.00;40.50;;;;;12.15;52.60;101887.34;5025056;28;45416;-76
2022/03/28 04:24:55;;;;;;;;;51.00;39.50;;;;;12.16;52.38;101891.81;5019414;28;45715;-75
2022/03/28 04:27:21;;;;;;;;;48.75;39.75;;;;;12.08;52.56;101889.19;5023855;28;45654;-74
2022/03/28 04:29:46;;;;;;;;;53.50;40.00;;;;;12.06;53.28;101884.91;4996035;28;47230;-77
2022/03/28 04:32:12;;;;;;;;;50.75;39.00;;;;;12.07;53.13;101898.47;5030758;28;45718;-74
2022/03/28 04:34:37;;;;;;;;;49.75;38.50;;;;;12.06;52.93;101890.41;5032072;28;45997;-75
2022/03/28 04:37:03;;;;;;;;;56.00;44.50;;;;;12.01;53.85;101894.56;5033080;28;45371;-75
2022/03/28 04:39:28;;;;;;;;;52.00;40.75;;;;;12.01;53.73;101893.75;5032886;28;46820;-74
2022/03/28 04:41:54;;;;;;;;;56.00;44.25;;;;;11.99;54.04;101884.81;5027826;28;45839;-75
2022/03/28 04:44:19;;;;;;;;;51.50;40.25;;;;;12.00;53.83;101889.28;5013494;28;45799;-75
2022/03/28 04:46:45;;;;;;;;;50.25;38.25;;;;;11.96;53.76;101880.56;5008191;28;45972;-76
2022/03/28 04:49:14;;;;;;;;;50.00;39.25;;;;;11.99;54.34;101884.81;5014859;28;46585;-75
2022/03/28 04:51:39;;;;;;;;;50.75;41.50;;;;;11.98;54.66;101883.13;5018193;28;45777;-76
2022/03/28 04:54:05;;;;;;;;;57.00;41.75;;;;;11.94;54.23;101876.28;5032309;28;45667;-74
2022/03/28 04:56:30;;;;;;;;;51.25;40.50;;;;;11.95;54.17;101873.34;5024892;28;45394;-74
2022/03/28 04:58:56;;;;;;;;;53.25;40.50;;;;;11.95;53.99;101883.50;5006683;28;46227;-74
2022/03/28 05:01:21;;;;;;;;;50.00;38.00;;;;;11.93;54.28;101869.94;5031821;28;45362;-74
2022/03/28 05:03:47;;;;;;;;;49.50;36.00;;;;;11.95;54.22;101873.34;5020126;28;45366;-74
2022/03/28 05:06:12;;;;;;;;;47.25;38.25;;;;;11.96;54.33;101879.69;5009225;28;45927;-75
2022/03/28 05:08:38;;;;;;;;;51.50;37.25;;;;;11.95;54.21;101876.09;4994908;28;47031;-75
2022/03/28 05:11:03;;;;;;;;;55.25;39.50;;;;;11.96;53.91;101872.31;5001459;28;45756;-75
2022/03/28 05:13:29;;;;;;;;;51.25;38.50;;;;;11.95;53.72;101878.84;4998312;28;46017;-74
2022/03/28 05:15:56;;;;;;;;;49.25;38.75;;;;;11.99;53.60;101873.81;4999726;28;45469;-74
2022/03/28 05:18:21;;;;;;;;;53.00;40.25;;;;;11.97;53.47;101860.25;4979217;28;47270;-76
2022/03/28 05:20:47;;;;;;;;;45.50;37.75;;;;;11.98;54.18;101866.63;4979998;28;45743;-75
2022/03/28 05:23:12;;;;;;;;;48.75;37.25;;;;;11.98;53.81;101867.47;5003130;28;45576;-73
2022/03/28 05:25:38;;;;;;;;;43.25;34.25;;;;;12.01;54.29;101871.75;5004392;28;45399;-75
2022/03/28 05:28:05;;;;;;;;;46.00;38.00;;;;;12.01;54.65;101878.09;4998551;28;45371;-75
2022/03/28 05:30:30;;;;;;;;;48.25;38.50;;;;;12.02;53.87;101873.47;5003289;28;45551;-76
2022/03/28 05:32:55;;;;;;;;;50.00;40.00;;;;;12.04;53.99;101873.25;5024731;28;45878;-75
2022/03/28 05:35:21;;;;;;;;;46.75;37.75;;;;;12.07;54.19;101872.88;5025555;28;45657;-75
2022/03/28 05:37:46;;;;;;;;;49.25;38.00;;;;;12.07;53.93;101872.88;5029142;28;45807;-75
2022/03/28 05:40:13;;;;;;;;;49.50;37.00;;;;;12.14;54.53;101882.91;5022490;28;45294;-75
2022/03/28 05:42:39;;;;;;;;;49.25;39.75;;;;;12.17;54.35;101878.91;5007255;28;45815;-77
2022/03/28 05:45:05;;;;;;;;;57.00;39.50;;;;;12.24;54.23;101876.25;5020899;28;45490;-78
2022/03/28 05:47:30;;;;;;;;;47.25;37.25;;;;;12.31;54.08;101882.72;5018366;28;46238;-74
2022/03/28 05:49:56;;;;;;;;;53.75;40.50;;;;;12.38;53.59;101872.66;5020459;28;45715;-74
2022/03/28 05:52:22;;;;;;;;;51.75;40.50;;;;;12.50;53.70;101867.47;5027733;28;45418;-75
2022/03/28 05:54:47;;;;;;;;;54.75;41.25;;;;;12.50;52.81;101851.81;5015459;28;45467;-73
2022/03/28 05:57:13;;;;;;;;;52.25;38.75;;;;;12.73;52.96;101864.56;5021454;28;46903;-75
2022/03/28 05:59:38;;;;;;;;;56.50;43.00;;;;;12.80;52.45;101862.72;5033765;28;45643;-74
2022/03/28 06:02:04;;;;;;;;;49.50;38.25;;;;;12.92;51.83;101863.06;5014478;28;45623;-73
2022/03/28 06:04:30;;;;;;;;;54.50;41.00;;;;;13.06;52.18;101866.78;5035261;28;45423;-77
2022/03/28 06:06:55;;;;;;;;;48.75;39.25;;;;;13.25;52.00;101868.84;5034834;28;45671;-78
2022/03/28 06:09:21;;;;;;;;;55.75;41.50;;;;;13.46;51.51;101861.63;5032537;28;45703;-79
2022/03/28 06:11:46;;;;;;;;;58.50;42.00;;;;;13.69;52.58;101861.34;5032611;28;45903;-77
2022/03/28 06:14:12;;;;;;;;;56.75;43.00;;;;;13.82;50.65;101874.38;5013671;28;45672;-74
2022/03/28 06:16:38;;;;;;;;;56.00;43.00;;;;;13.95;50.77;101863.44;5003952;28;45908;-80
2022/03/28 06:19:03;;;;;;;;;54.00;41.25;;;;;14.17;49.85;101866.06;5029069;28;45847;-73
2022/03/28 06:21:32;;;;;;;;;61.25;45.75;;;;;14.36;49.34;101863.63;5031046;28;45927;-73
2022/03/28 06:23:59;;;;;;;;;56.25;43.00;;;;;14.58;50.41;101856.91;5031395;28;45403;-77
2022/03/28 06:26:25;;;;;;;;;55.25;42.00;;;;;14.80;49.86;101865.03;5029430;28;47014;-77
2022/03/28 06:28:51;;;;;;;;;57.75;44.00;;;;;14.96;50.18;101864.63;5030236;28;45257;-76
2022/03/28 06:31:17;;;;;;;;;58.25;42.25;;;;;15.03;50.79;101866.53;5010166;28;45448;-75
2022/03/28 06:33:43;;;;;;;;;50.50;42.50;;;;;14.97;51.81;101859.94;5031293;28;45878;-75
2022/03/28 06:36:09;;;;;;;;;56.75;43.00;;;;;14.91;51.65;101858.91;5031641;28;45433;-77
2022/03/28 06:38:34;;;;;;;;;58.50;43.75;;;;;14.77;51.58;101865.44;5031095;28;45792;-76
2022/03/28 06:41:00;;;;;;;;;56.00;38.75;;;;;14.62;52.19;101858.19;5027214;28;45789;-73
2022/03/28 06:43:25;;;;;;;;;52.50;43.75;;;;;14.57;52.71;101865.38;5028208;28;45907;-74
2022/03/28 06:45:51;;;;;;;;;58.00;45.50;;;;;14.47;52.70;101863.00;5030721;28;46166;-74
2022/03/28 06:48:18;;;;;;;;;62.00;46.50;;;;;14.56;52.84;101864.50;5029291;28;45842;-76
2022/03/28 06:50:43;;;;;;;;;56.50;40.50;;;;;14.74;52.36;101861.19;5024587;28;45466;-76
2022/03/28 06:53:09;;;;;;;;;60.50;43.00;;;;;14.93;52.11;101854.00;5030599;28;45786;-77
2022/03/28 06:55:34;;;;;;;;;62.25;46.75;;;;;15.13;51.56;101861.47;5029664;28;47852;-78
2022/03/28 06:58:00;;;;;;;;;61.75;48.00;;;;;15.39;51.40;101859.75;5030449;28;45639;-77
2022/03/28 07:00:25;;;;;;;;;63.25;46.50;;;;;15.48;51.09;101851.03;5031092;28;45655;-76
2022/03/28 07:02:50;;;;;;;;;52.00;41.75;;;;;15.46;50.57;101852.31;5031474;28;45317;-75
2022/03/28 07:05:19;;;;;;;;;53.25;36.50;;;;;15.47;50.33;101854.00;5036088;28;46156;-69
2022/03/28 07:07:46;;;;;;;;;55.50;45.00;;;;;15.52;50.69;101846.78;5029942;28;45783;-70
2022/03/28 07:10:13;;;;;;;;;53.75;42.00;;;;;15.69;50.69;101846.31;5035149;28;45603;-70
2022/03/28 07:12:39;;;;;;;;;59.00;45.25;;;;;16.24;49.40;101846.81;5034633;28;45351;-72
2022/03/28 07:15:06;;;;;;;;;55.00;41.50;;;;;16.76;48.31;101841.16;5033833;28;46753;-71
2022/03/28 07:17:33;;;;;;;;;61.25;46.25;;;;;17.28;46.93;101841.03;5032749;28;45748;-70
2022/03/28 07:19:59;;;;;;;;;50.00;38.50;;;;;17.90;45.94;101844.91;5034558;28;45492;-69
2022/03/28 07:22:24;;;;;;;;;53.00;40.75;;;;;18.48;44.14;101835.22;5033633;28;45548;-77
2022/03/28 07:24:50;;;;;;;;;51.00;40.33;;;;;19.02;42.91;101833.34;5034722;28;46070;-77
2022/03/28 07:27:17;;;;;;;;;49.67;41.33;;;;;19.57;41.76;101840.53;5034658;28;45514;-75
2022/03/28 07:29:45;;;;;;;;;54.00;40.33;;;;;20.04;41.12;101838.81;5032360;28;46357;-75
2022/03/28 07:32:11;;;;;;;;;55.33;41.33;;;;;20.60;40.15;101836.31;5031055;28;45888;-76
2022/03/28 07:34:38;;;;;;;;;47.67;38.67;;;;;21.03;39.08;101842.41;5034602;28;46114;-78
2022/03/28 07:37:06;;;;;;;;;57.67;40.67;;;;;21.01;38.79;101850.19;5034927;28;45808;-77
2022/03/28 07:39:34;;;;;;;;;46.67;34.67;;;;;20.85;38.87;101846.25;5029975;28;45518;-78
2022/03/28 07:42:00;;;;;;;;;48.33;40.00;;;;;20.64;39.27;101834.69;5035132;28;45300;-77
2022/03/28 07:44:25;;;;;;;;;55.00;43.33;;;;;20.48;39.03;101836.38;5034045;28;45695;-76
2022/03/28 07:46:51;;;;;;;;;51.67;39.33;;;;;20.32;39.70;101831.59;5035047;28;45343;-75
2022/03/28 07:49:17;;;;;;;;;56.50;42.50;;;;;20.19;40.00;101832.72;5016813;28;45272;-77
2022/03/28 07:51:43;;;;;;;;;52.67;39.33;;;;;20.06;39.92;101831.03;5016837;28;47052;-76
2022/03/28 07:54:09;;;;;;;;;51.33;39.33;;;;;19.91;40.17;101829.63;5036128;28;45426;-77
2022/03/28 07:56:35;;;;;;;;;52.67;40.67;;;;;19.81;40.51;101837.75;5036800;28;45370;-78
2022/03/28 07:59:00;;;;;;;;;53.67;41.00;;;;;19.64;40.97;101831.19;5034276;28;45362;-75
2022/03/28 08:01:26;;;;;;;;;54.00;42.33;;;;;19.47;41.02;101825.53;5034974;28;45405;-75
2022/03/28 08:03:52;;;;;;;;;55.33;42.33;;;;;19.42;41.07;101829.03;5034567;28;46119;-77
2022/03/28 08:06:18;;;;;;;;;53.33;42.33;;;;;19.41;41.40;101827.34;5040813;28;45412;-75
2022/03/28 08:08:43;;;;;;;;;55.33;40.67;;;;;19.40;41.25;101828.41;5037598;28;45927;-78
2022/03/28 08:11:10;;;;;;;;;54.33;40.00;;;;;19.39;41.29;101826.75;5037004;28;45832;-78
2022/03/28 08:13:36;;;;;;;;;59.00;43.33;;;;;19.37;41.56;101837.25;5038171;28;45945;-79
2022/03/28 08:16:03;;;;;;;;;53.67;42.33;;;;;19.35;41.72;101831.09;5027999;28;45864;-78
2022/03/28 08:18:29;;;;;;;;;50.67;39.67;;;;;19.41;41.89;101833.75;5039711;28;45387;-77
2022/03/28 08:20:56;;;;;;;;;50.67;39.33;;;;;19.49;41.54;101823.34;5038519;28;45378;-79
2022/03/28 08:23:21;;;;;;;;;55.00;40.00;;;;;19.48;41.66;101822.50;5017213;28;47691;-77
2022/03/28 08:25:48;;;;;;;;;51.67;38.33;;;;;19.45;41.37;101816.59;5031656;28;45712;-77
2022/03/28 08:28:14;;;;;;;;;51.00;40.67;;;;;19.47;41.64;101819.97;5027569;28;45576;-78
2022/03/28 08:30:40;;;;;;;;;53.67;43.33;;;;;19.44;41.35;101818.50;5038579;28;45341;-78
2022/03/28 08:33:06;;;;;;;;;52.67;37.67;;;;;19.44;41.51;101824.06;5040368;28;46109;-77
2022/03/28 08:35:31;;;;;;;;;60.67;43.67;;;;;19.43;41.59;101818.75;5037704;28;45204;-78
2022/03/28 08:37:58;;;;;;;;;58.00;43.67;;;;;19.38;41.61;101819.47;5038655;28;45393;-77
2022/03/28 08:40:23;;;;;;;;;56.00;43.67;;;;;19.33;41.58;101809.09;5036744;28;45743;-77
2022/03/28 08:42:49;;;;;;;;;61.33;45.00;;;;;19.30;41.59;101808.72;5037231;28;45465;-77
2022/03/28 08:45:16;;;;;;;;;53.00;40.67;;;;;19.31;41.77;101818.75;5035205;28;45353;-78
2022/03/28 08:47:44;;;;;;;;;53.33;40.67;;;;;19.30;41.74;101811.50;5034214;28;45695;-76
2022/03/28 08:50:12;;;;;;;;;60.33;42.33;;;;;19.36;42.15;101813.31;5034380;28;45910;-76
2022/03/28 08:52:40;;;;;;;;;54.33;42.67;;;;;19.46;41.94;101809.91;5033291;28;46302;-77
2022/03/28 08:55:08;;;;;;;;;56.33;44.33;;;;;19.58;41.58;101805.19;5033833;28;45487;-76
2022/03/28 08:57:34;;;;;;;;;55.00;39.67;;;;;19.68;41.28;101807.38;5015245;28;45943;-74
2022/03/28 09:00:00;;;;;;;;;55.67;41.67;;;;;19.72;41.68;101805.78;5032042;28;45378;-77
2022/03/28 09:02:46;;;;;;;;;59.00;43.00;;;;;19.71;42.00;101798.53;5014679;28;47255;-76
2022/03/28 09:05:16;;;;;;;;;50.67;41.67;;;;;19.83;41.40;101799.38;5031202;28;45429;-77
2022/03/28 09:07:42;;;;;;;;;43.00;34.67;;;;;19.97;40.67;101802.75;5033368;28;45715;-76
2022/03/28 09:10:13;;;;;;;;;53.00;39.67;;;;;20.14;40.53;101801.97;5031152;28;45391;-77
2022/03/28 09:13:06;;;;;;;;;54.00;39.00;;;;;21.04;39.57;101807.84;5013676;28;47113;-77
2022/03/28 09:15:42;;;;;;;;;54.00;41.67;;;;;22.27;37.22;101800.38;5032578;28;45745;-77
2022/03/28 09:18:18;;;;;;;;;49.00;39.67;;;;;23.43;35.59;101790.53;5033114;28;45678;-76
2022/03/28 09:20:47;;;;;;;;;56.67;40.00;;;;;24.72;33.00;101788.25;5032600;28;45493;-77
2022/03/28 09:23:35;;;;;;;;;55.33;40.33;;;;;25.97;31.92;101786.94;5032135;28;45845;-75
2022/03/28 09:26:10;;;;;;;;;47.33;36.33;;;;;27.07;30.03;101778.41;5031617;28;45477;-76
2022/03/28 09:28:56;;;;;;;;;47.33;37.67;;;;;27.94;28.53;101783.06;5023782;28;45417;-75
2022/03/28 09:31:44;;;;;;;;;48.67;37.00;;;;;29.19;27.03;101783.75;5031689;28;45409;-77
2022/03/28 09:34:15;;;;;;;;;47.67;36.33;;;;;30.10;25.33;101790.72;5025881;28;45494;-77
2022/03/28 09:36:50;;;;;;;;;47.50;36.00;;;;;30.83;24.33;101774.94;5032099;28;45474;-76
2022/03/28 09:39:22;;;;;;;;;45.67;36.00;;;;;31.46;23.34;101775.81;5032297;28;45291;-78
2022/03/28 09:42:04;;;;;;;;;43.33;34.67;;;;;32.15;22.57;101780.91;5032096;28;45869;-77
2022/03/28 09:44:39;;;;;;;;;48.67;35.67;;;;;32.75;22.26;101784.16;5031850;28;45480;-78
2022/03/28 09:47:10;;;;;;;;;47.00;35.33;;;;;33.29;21.18;101771.53;5024471;28;45748;-75
2022/03/28 09:49:37;;;;;;;;;41.00;34.33;;;;;33.60;20.67;101772.06;5029140;28;45743;-77
2022/03/28 09:52:08;;;;;;;;;40.67;31.67;;;;;34.01;19.62;101763.97;5030895;28;45946;-74
2022/03/28 09:55:02;;;;;;;;;42.00;34.67;;;;;34.29;20.12;101757.78;5031855;28;45680;-74
2022/03/28 09:57:36;;;;;;;;;38.00;30.67;;;;;34.91;19.03;101758.09;5032514;28;46060;-75
2022/03/28 10:00:14;;;;;;;;;46.00;33.00;;;;;35.25;18.48;101754.00;5031703;28;45771;-74
2022/03/28 10:02:40;;;;;;;;;40.67;32.00;;;;;35.51;17.97;101755.72;5014951;28;45438;-76
2022/03/28 10:05:06;;;;;;;;;41.50;36.00;;;;;35.88;17.73;101750.84;5037378;28;46244;-76
2022/03/28 10:07:32;;;;;;;;;49.00;36.33;;;;;36.06;18.03;101753.44;5031888;28;45745;-75
2022/03/28 10:09:59;;;;;;;;;36.00;32.33;;;;;36.07;17.51;101743.69;5037218;28;45445;-76
2022/03/28 10:12:25;;;;;;;;;44.33;36.00;;;;;36.34;17.33;101732.72;5012748;28;46768;-74
2022/03/28 10:14:57;;;;;;;;;44.33;35.00;;;;;36.47;17.14;101739.19;5027919;28;45794;-76
2022/03/28 10:17:30;;;;;;;;;44.67;35.33;;;;;36.32;17.33;101732.22;5029315;28;46014;-76
2022/03/28 10:19:57;;;;;;;;;45.67;35.00;;;;;36.01;17.00;101728.84;5032023;28;45422;-76
2022/03/28 10:22:28;;;;;;;;;36.00;31.67;;;;;35.73;17.14;101723.00;5031285;28;45453;-75
2022/03/28 10:24:57;;;;;;;;;39.33;31.00;;;;;35.75;17.02;101720.66;5033360;28;45764;-78
2022/03/28 10:27:23;;;;;;;;;43.67;34.67;;;;;35.74;16.96;101723.88;5032225;28;45304;-76
2022/03/28 10:29:48;;;;;;;;;36.00;31.67;;;;;35.37;17.21;101707.59;5014073;28;45379;-78
2022/03/28 10:32:17;;;;;;;;;34.67;31.00;;;;;35.47;17.39;101701.41;5011023;28;46911;-75
2022/03/28 10:34:54;;;;;;;;;36.33;32.67;;;;;35.63;17.09;101701.53;5008120;28;47084;-75
2022/03/28 10:37:31;;;;;;;;;34.33;31.33;;;;;35.55;16.80;101702.47;5023045;28;45405;-77
2022/03/28 10:40:15;;;;;;;;;38.00;32.33;;;;;35.29;16.32;101692.25;5010873;28;45735;-78
2022/03/28 10:43:04;;;;;;;;;31.67;24.67;;;;;34.76;16.40;101699.69;5023529;28;45350;-77
2022/03/28 10:45:38;;;;;;;;;34.67;31.33;;;;;34.44;16.59;101699.38;5032977;28;45478;-77
2022/03/28 10:48:08;;;;;;;;;36.67;31.33;;;;;34.28;16.53;101694.31;5033509;28;45701;-77
2022/03/28 10:50:37;;;;;;;;;37.67;31.00;;;;;34.41;16.96;101682.97;5033837;28;45467;-77
2022/03/28 10:53:25;;;;;;;;;39.00;31.00;;;;;34.22;16.63;101689.97;5033539;28;45622;-75
2022/03/28 10:55:57;;;;;;;;;30.00;26.00;;;;;33.96;16.98;101676.78;5033564;28;46618;-76
2022/03/28 10:58:37;;;;;;;;;37.67;34.67;;;;;33.98;16.98;101672.78;5033136;28;45843;-78
2022/03/28 11:01:08;;;;;;;;;29.33;24.67;;;;;33.83;16.00;101675.03;5033785;28;45750;-79
2022/03/28 11:03:46;;;;;;;;;32.67;29.33;;;;;33.59;16.99;101670.00;5033399;28;45519;-76
2022/03/28 11:06:13;;;;;;;;;35.00;32.00;;;;;33.15;17.13;101664.50;5031400;28;45918;-75
2022/03/28 11:08:57;;;;;;;;;39.00;29.33;;;;;32.60;17.37;101651.16;5025176;28;45662;-76
2022/03/28 11:11:25;;;;;;;;;33.33;27.33;;;;;32.05;17.43;101644.97;5020652;28;45900;-76
2022/03/28 11:14:11;;;;;;;;;40.00;30.00;;;;;31.45;18.19;101646.56;5023063;28;45849;-76